PWSweather.com
Personal Weather Stations
Station Observations
ISARDEGN48
BittiIT 08021

BittiIT 08021

Lat: 40.4805, Lon: 9.3887

Elevation: 1804

Station Type: La Crosse WS2355

http://meteobitti.altervista.org

High Low Average
Temperature 57.0°F13.9°C 49.6°F9.8°C 52.6°F11.4°C
Dew Point 48.4°F9.1°C 43.1°F6.2°C 45.9°F7.7°C
Winds 21.0 mph 33.8 kmh Calm Calm 6.0 mph SE9.7 kmh SE
Wind Gusts 26.4 mph42.5 kmh 2.7 mph4.3 kmh 12.0 mph19.3 kmh
Humidity 89% 67% 78%
Pressure 29.63 in1003.4 mb 29.56 in1001.0 mb -
Precipitation 0.04 in1.0 mm - -
Hour Temp Dew Point Humidity Winds Wind Gusts Pressure Precip Precip Rate Daily Precip Total
12:00 AM 53.4°F11.9°C 46.0°F7.8°C 76% 8.7 mph SSW14.0 kmh SSW 12.1 mph19.5 kmh 29.59 in1002.0 mb 0.00 in0.0 mm 0.00 in0.0 mm 0.00 in0.0 mm
12:05 AM 53.4°F11.9°C 46.0°F7.8°C 76% 10.1 mph SSW16.3 kmh SSW 13.9 mph22.4 kmh 29.59 in1002.0 mb 0.00 in0.0 mm 0.00 in0.0 mm 0.00 in0.0 mm
12:10 AM 53.4°F11.9°C 46.0°F7.8°C 76% 10.1 mph SSW16.3 kmh SSW 13.9 mph22.4 kmh 29.59 in1002.0 mb 0.00 in0.0 mm 0.00 in0.0 mm 0.00 in0.0 mm
12:15 AM 53.4°F11.9°C 46.4°F8.0°C 77% 9.2 mph SSW14.8 kmh SSW 13.9 mph22.4 kmh 29.59 in1002.0 mb 0.00 in0.0 mm 0.00 in0.0 mm 0.00 in0.0 mm
12:20 AM 53.2°F11.8°C 46.2°F7.9°C 77% 7.8 mph SSW12.6 kmh SSW 13.2 mph21.2 kmh 29.59 in1002.0 mb 0.00 in0.0 mm 0.00 in0.0 mm 0.00 in0.0 mm
12:25 AM 53.2°F11.8°C 46.2°F7.9°C 77% 11.9 mph SSW19.2 kmh SSW 13.6 mph21.9 kmh 29.59 in1002.0 mb 0.00 in0.0 mm 0.00 in0.0 mm 0.00 in0.0 mm
12:30 AM 53.2°F11.8°C 46.6°F8.1°C 78% 8.5 mph SSW13.7 kmh SSW 15.7 mph25.3 kmh 29.58 in1001.7 mb 0.00 in0.0 mm 0.00 in0.0 mm 0.00 in0.0 mm
12:35 AM 53.4°F11.9°C 46.8°F8.2°C 78% 14.1 mph SSW22.7 kmh SSW 17.2 mph27.7 kmh 29.58 in1001.7 mb 0.00 in0.0 mm 0.00 in0.0 mm 0.00 in0.0 mm
12:40 AM 53.4°F11.9°C 46.8°F8.2°C 78% 7.4 mph S11.9 kmh S 17.2 mph27.7 kmh 29.59 in1002.0 mb 0.00 in0.0 mm 0.00 in0.0 mm 0.00 in0.0 mm
12:45 AM 53.4°F11.9°C 46.8°F8.2°C 78% 6.0 mph S9.7 kmh S 21.3 mph34.3 kmh 29.59 in1002.0 mb 0.00 in0.0 mm 0.00 in0.0 mm 0.00 in0.0 mm
12:50 AM 53.4°F11.9°C 46.8°F8.2°C 78% 6.9 mph S11.1 kmh S 21.3 mph34.3 kmh 29.59 in1002.0 mb 0.00 in0.0 mm 0.00 in0.0 mm 0.00 in0.0 mm
12:55 AM 53.4°F11.9°C 46.8°F8.2°C 78% 16.3 mph S26.2 kmh S 18.3 mph29.5 kmh 29.59 in1002.0 mb 0.00 in0.0 mm 0.00 in0.0 mm 0.00 in0.0 mm
01:00 AM 53.4°F11.9°C 46.8°F8.2°C 78% 11.6 mph S18.7 kmh S 20.4 mph32.8 kmh 29.59 in1002.0 mb 0.00 in0.0 mm 0.00 in0.0 mm 0.00 in0.0 mm
01:05 AM 53.4°F11.9°C 47.1°F8.4°C 79% 17.2 mph SSW27.7 kmh SSW 17.2 mph27.7 kmh 29.58 in1001.7 mb 0.00 in0.0 mm 0.00 in0.0 mm 0.00 in0.0 mm
01:10 AM 53.2°F11.8°C 47.3°F8.5°C 80% 11.9 mph SSW19.2 kmh SSW 18.1 mph29.1 kmh 29.58 in1001.7 mb 0.00 in0.0 mm 0.00 in0.0 mm 0.00 in0.0 mm
01:15 AM 52.9°F11.6°C 46.9°F8.3°C 80% 9.6 mph SSW15.4 kmh SSW 20.6 mph33.2 kmh 29.59 in1002.0 mb 0.00 in0.0 mm 0.00 in0.0 mm 0.00 in0.0 mm
01:20 AM 52.7°F11.5°C 46.8°F8.2°C 80% 8.5 mph SSW13.7 kmh SSW 20.6 mph33.2 kmh 29.58 in1001.7 mb 0.00 in0.0 mm 0.00 in0.0 mm 0.00 in0.0 mm
01:25 AM 52.5°F11.4°C 46.9°F8.3°C 81% 13.0 mph SSW20.9 kmh SSW 19.0 mph30.6 kmh 29.58 in1001.7 mb 0.00 in0.0 mm 0.00 in0.0 mm 0.00 in0.0 mm
01:30 AM 52.5°F11.4°C 46.9°F8.3°C 81% 10.3 mph SSW16.6 kmh SSW 19.0 mph30.6 kmh 29.58 in1001.7 mb 0.00 in0.0 mm 0.00 in0.0 mm 0.00 in0.0 mm
01:35 AM 52.5°F11.4°C 46.9°F8.3°C 81% 18.8 mph SSW30.3 kmh SSW 18.8 mph30.3 kmh 29.58 in1001.7 mb 0.00 in0.0 mm 0.00 in0.0 mm 0.00 in0.0 mm
01:40 AM 52.3°F11.3°C 46.4°F8.0°C 80% 12.5 mph SSW20.1 kmh SSW 18.8 mph30.3 kmh 29.59 in1002.0 mb 0.00 in0.0 mm 0.00 in0.0 mm 0.00 in0.0 mm
01:45 AM 52.3°F11.3°C 46.4°F8.0°C 80% 11.9 mph SSW19.2 kmh SSW 20.8 mph33.5 kmh 29.58 in1001.7 mb 0.00 in0.0 mm 0.00 in0.0 mm 0.00 in0.0 mm
01:50 AM 52.3°F11.3°C 46.4°F8.0°C 80% 9.6 mph SSW15.4 kmh SSW 20.8 mph33.5 kmh 29.59 in1002.0 mb 0.00 in0.0 mm 0.00 in0.0 mm 0.00 in0.0 mm
01:55 AM 52.3°F11.3°C 46.4°F8.0°C 80% 8.9 mph SSW14.3 kmh SSW 19.0 mph30.6 kmh 29.59 in1002.0 mb 0.00 in0.0 mm 0.00 in0.0 mm 0.00 in0.0 mm
02:00 AM 52.3°F11.3°C 46.7°F8.2°C 81% 14.8 mph SSW23.8 kmh SSW 18.1 mph29.1 kmh 29.58 in1001.7 mb 0.00 in0.0 mm 0.00 in0.0 mm 0.00 in0.0 mm
02:05 AM 52.2°F11.2°C 46.5°F8.1°C 81% 8.9 mph SSW14.3 kmh SSW 14.8 mph23.8 kmh 29.58 in1001.7 mb 0.00 in0.0 mm 0.00 in0.0 mm 0.00 in0.0 mm
02:10 AM 52.0°F11.1°C 46.3°F7.9°C 81% 10.1 mph SSW16.3 kmh SSW 14.8 mph23.8 kmh 29.58 in1001.7 mb 0.00 in0.0 mm 0.00 in0.0 mm 0.00 in0.0 mm
02:15 AM 51.6°F10.9°C 46.0°F7.8°C 81% 7.4 mph SSW11.9 kmh SSW 12.8 mph20.6 kmh 29.58 in1001.7 mb 0.00 in0.0 mm 0.00 in0.0 mm 0.00 in0.0 mm
02:20 AM 51.6°F10.9°C 46.3°F7.9°C 82% 5.1 mph SSW8.2 kmh SSW 12.8 mph20.6 kmh 29.58 in1001.7 mb 0.00 in0.0 mm 0.00 in0.0 mm 0.00 in0.0 mm
02:25 AM 51.4°F10.8°C 46.4°F8.0°C 83% 4.3 mph SW6.9 kmh SW 11.0 mph17.7 kmh 29.58 in1001.7 mb 0.00 in0.0 mm 0.00 in0.0 mm 0.00 in0.0 mm
02:30 AM 51.1°F10.6°C 46.1°F7.8°C 83% 6.7 mph SSW10.8 kmh SSW 8.3 mph13.4 kmh 29.58 in1001.7 mb 0.00 in0.0 mm 0.00 in0.0 mm 0.00 in0.0 mm
02:35 AM 51.1°F10.6°C 46.4°F8.0°C 84% 8.3 mph SSW13.4 kmh SSW 10.5 mph16.9 kmh 29.58 in1001.7 mb 0.00 in0.0 mm 0.00 in0.0 mm 0.00 in0.0 mm
02:40 AM 50.9°F10.5°C 46.2°F7.9°C 84% 6.7 mph SSW10.8 kmh SSW 11.6 mph18.7 kmh 29.58 in1001.7 mb 0.00 in0.0 mm 0.00 in0.0 mm 0.00 in0.0 mm
02:45 AM 50.9°F10.5°C 46.2°F7.9°C 84% 9.2 mph SSW14.8 kmh SSW 11.6 mph18.7 kmh 29.58 in1001.7 mb 0.00 in0.0 mm 0.00 in0.0 mm 0.00 in0.0 mm
02:50 AM 50.9°F10.5°C 46.2°F7.9°C 84% 9.6 mph SSW15.4 kmh SSW 11.9 mph19.2 kmh 29.58 in1001.7 mb 0.00 in0.0 mm 0.00 in0.0 mm 0.00 in0.0 mm
02:55 AM 50.9°F10.5°C 46.2°F7.9°C 84% 15.2 mph SSW24.5 kmh SSW 16.3 mph26.2 kmh 29.57 in1001.4 mb 0.00 in0.0 mm 0.00 in0.0 mm 0.00 in0.0 mm
03:00 AM 51.1°F10.6°C 46.4°F8.0°C 84% 11.0 mph SSW17.7 kmh SSW 16.3 mph26.2 kmh 29.57 in1001.4 mb 0.00 in0.0 mm 0.00 in0.0 mm 0.00 in0.0 mm
03:05 AM 51.1°F10.6°C 46.4°F8.0°C 84% 11.0 mph SSW17.7 kmh SSW 13.2 mph21.2 kmh 29.57 in1001.4 mb 0.00 in0.0 mm 0.00 in0.0 mm 0.00 in0.0 mm
03:10 AM 50.9°F10.5°C 46.5°F8.1°C 85% 6.9 mph SSW11.1 kmh SSW 13.2 mph21.2 kmh 29.57 in1001.4 mb 0.00 in0.0 mm 0.00 in0.0 mm 0.00 in0.0 mm
03:15 AM 50.7°F10.4°C 46.3°F7.9°C 85% 10.3 mph SSW16.6 kmh SSW 12.8 mph20.6 kmh 29.57 in1001.4 mb 0.00 in0.0 mm 0.00 in0.0 mm 0.00 in0.0 mm
03:20 AM 50.9°F10.5°C 46.5°F8.1°C 85% 8.1 mph SSW13.0 kmh SSW 12.5 mph20.1 kmh 29.57 in1001.4 mb 0.00 in0.0 mm 0.00 in0.0 mm 0.00 in0.0 mm
03:25 AM 51.1°F10.6°C 46.7°F8.2°C 85% 8.9 mph SSW14.3 kmh SSW 12.5 mph20.1 kmh 29.57 in1001.4 mb 0.00 in0.0 mm 0.00 in0.0 mm 0.00 in0.0 mm
03:30 AM 51.3°F10.7°C 46.5°F8.1°C 84% 11.2 mph SSW18.0 kmh SSW 12.1 mph19.5 kmh 29.57 in1001.4 mb 0.00 in0.0 mm 0.00 in0.0 mm 0.00 in0.0 mm
03:35 AM 51.4°F10.8°C 46.7°F8.2°C 84% 8.1 mph SSW13.0 kmh SSW 12.1 mph19.5 kmh 29.56 in1001.0 mb 0.00 in0.0 mm 0.00 in0.0 mm 0.00 in0.0 mm
03:40 AM 51.6°F10.9°C 46.6°F8.1°C 83% 9.4 mph SSW15.1 kmh SSW 11.0 mph17.7 kmh 29.56 in1001.0 mb 0.00 in0.0 mm 0.00 in0.0 mm 0.00 in0.0 mm
03:45 AM 51.6°F10.9°C 46.6°F8.1°C 83% 8.1 mph S13.0 kmh S 11.9 mph19.2 kmh 29.56 in1001.0 mb 0.00 in0.0 mm 0.00 in0.0 mm 0.00 in0.0 mm
03:50 AM 51.6°F10.9°C 46.3°F7.9°C 82% 7.4 mph S11.9 kmh S 11.9 mph19.2 kmh 29.57 in1001.4 mb 0.00 in0.0 mm 0.00 in0.0 mm 0.00 in0.0 mm
03:55 AM 51.8°F11.0°C 46.5°F8.1°C 82% 4.0 mph SSW6.4 kmh SSW 12.8 mph20.6 kmh 29.57 in1001.4 mb 0.00 in0.0 mm 0.00 in0.0 mm 0.00 in0.0 mm
04:00 AM 52.0°F11.1°C 46.7°F8.2°C 82% 8.5 mph SSW13.7 kmh SSW 12.8 mph20.6 kmh 29.57 in1001.4 mb 0.00 in0.0 mm 0.00 in0.0 mm 0.00 in0.0 mm
04:05 AM 52.0°F11.1°C 46.7°F8.2°C 82% 9.8 mph S15.8 kmh S 11.0 mph17.7 kmh 29.57 in1001.4 mb 0.00 in0.0 mm 0.00 in0.0 mm 0.00 in0.0 mm
04:10 AM 52.2°F11.2°C 47.1°F8.4°C 83% 10.1 mph S16.3 kmh S 12.1 mph19.5 kmh 29.57 in1001.4 mb 0.00 in0.0 mm 0.00 in0.0 mm 0.00 in0.0 mm
04:15 AM 52.2°F11.2°C 47.4°F8.6°C 84% 12.3 mph S19.8 kmh S 14.3 mph23.0 kmh 29.56 in1001.0 mb 0.00 in0.0 mm 0.00 in0.0 mm 0.00 in0.0 mm
04:20 AM 52.2°F11.2°C 47.4°F8.6°C 84% 8.1 mph SSW13.0 kmh SSW 14.3 mph23.0 kmh 29.56 in1001.0 mb 0.00 in0.0 mm 0.00 in0.0 mm 0.00 in0.0 mm
04:25 AM 52.2°F11.2°C 47.8°F8.8°C 85% 13.6 mph SSW21.9 kmh SSW 15.0 mph24.1 kmh 29.56 in1001.0 mb 0.00 in0.0 mm 0.00 in0.0 mm 0.00 in0.0 mm
04:30 AM 52.2°F11.2°C 47.8°F8.8°C 85% 9.6 mph S15.4 kmh S 15.0 mph24.1 kmh 29.56 in1001.0 mb 0.00 in0.0 mm 0.00 in0.0 mm 0.00 in0.0 mm
04:35 AM 52.2°F11.2°C 47.8°F8.8°C 85% 4.9 mph S7.9 kmh S 15.9 mph25.6 kmh 29.57 in1001.4 mb 0.00 in0.0 mm 0.00 in0.0 mm 0.00 in0.0 mm
04:40 AM 52.2°F11.2°C 47.8°F8.8°C 85% 7.8 mph S12.6 kmh S 15.9 mph25.6 kmh 29.56 in1001.0 mb 0.00 in0.0 mm 0.00 in0.0 mm 0.00 in0.0 mm
04:45 AM 52.0°F11.1°C 47.3°F8.5°C 84% 4.7 mph S7.6 kmh S 12.8 mph20.6 kmh 29.57 in1001.4 mb 0.00 in0.0 mm 0.00 in0.0 mm 0.00 in0.0 mm
04:50 AM 52.0°F11.1°C 47.3°F8.5°C 84% 8.9 mph S14.3 kmh S 12.8 mph20.6 kmh 29.57 in1001.4 mb 0.00 in0.0 mm 0.00 in0.0 mm 0.00 in0.0 mm
04:55 AM 51.8°F11.0°C 46.8°F8.2°C 83% 8.5 mph S13.7 kmh S 13.0 mph20.9 kmh 29.57 in1001.4 mb 0.00 in0.0 mm 0.00 in0.0 mm 0.00 in0.0 mm
05:00 AM 52.0°F11.1°C 47.0°F8.3°C 83% 11.2 mph S18.0 kmh S 14.5 mph23.3 kmh 29.57 in1001.4 mb 0.00 in0.0 mm 0.00 in0.0 mm 0.00 in0.0 mm
05:05 AM 52.2°F11.2°C 47.1°F8.4°C 83% 3.4 mph S5.5 kmh S 13.2 mph21.2 kmh 29.57 in1001.4 mb 0.00 in0.0 mm 0.00 in0.0 mm 0.00 in0.0 mm
05:10 AM 52.3°F11.3°C 47.3°F8.5°C 83% 3.8 mph S6.1 kmh S 13.2 mph21.2 kmh 29.58 in1001.7 mb 0.00 in0.0 mm 0.00 in0.0 mm 0.00 in0.0 mm
05:15 AM 52.3°F11.3°C 47.3°F8.5°C 83% Calm Calm 7.2 mph11.6 kmh 29.58 in1001.7 mb 0.00 in0.0 mm 0.00 in0.0 mm 0.00 in0.0 mm
05:20 AM 52.2°F11.2°C 47.4°F8.6°C 84% 3.4 mph E5.5 kmh E 9.6 mph15.4 kmh 29.58 in1001.7 mb 0.02 in0.5 mm 0.24 in6.1 mm 0.02 in0.5 mm
05:25 AM 51.6°F10.9°C 46.9°F8.3°C 84% 4.0 mph E6.4 kmh E 9.6 mph15.4 kmh 29.57 in1001.4 mb 0.02 in0.5 mm 0.00 in0.0 mm 0.02 in0.5 mm
05:30 AM 51.1°F10.6°C 46.7°F8.2°C 85% 4.0 mph SE6.4 kmh SE 8.7 mph14.0 kmh 29.57 in1001.4 mb 0.02 in0.5 mm 0.00 in0.0 mm 0.02 in0.5 mm
05:35 AM 50.7°F10.4°C 46.3°F7.9°C 85% 2.5 mph SSW4.0 kmh SSW 6.3 mph10.1 kmh 29.57 in1001.4 mb 0.02 in0.5 mm 0.00 in0.0 mm 0.02 in0.5 mm
05:40 AM 50.4°F10.2°C 46.0°F7.8°C 85% 7.8 mph SSW12.6 kmh SSW 11.9 mph19.2 kmh 29.57 in1001.4 mb 0.02 in0.5 mm 0.00 in0.0 mm 0.02 in0.5 mm
05:45 AM 50.4°F10.2°C 46.0°F7.8°C 85% 2.2 mph SSW3.5 kmh SSW 14.3 mph23.0 kmh 29.57 in1001.4 mb 0.02 in0.5 mm 0.00 in0.0 mm 0.02 in0.5 mm
05:50 AM 50.2°F10.1°C 45.8°F7.7°C 85% 2.7 mph SSW4.3 kmh SSW 14.3 mph23.0 kmh 29.57 in1001.4 mb 0.02 in0.5 mm 0.00 in0.0 mm 0.02 in0.5 mm
05:55 AM 50.0°F10.0°C 45.9°F7.7°C 86% 3.1 mph SSW5.0 kmh SSW 10.5 mph16.9 kmh 29.57 in1001.4 mb 0.02 in0.5 mm 0.00 in0.0 mm 0.02 in0.5 mm
06:00 AM 49.8°F9.9°C 45.7°F7.6°C 86% 4.5 mph SW7.2 kmh SW 10.5 mph16.9 kmh 29.57 in1001.4 mb 0.02 in0.5 mm 0.00 in0.0 mm 0.02 in0.5 mm
06:05 AM 49.8°F9.9°C 46.0°F7.8°C 87% 6.7 mph SW10.8 kmh SW 8.5 mph13.7 kmh 29.57 in1001.4 mb 0.02 in0.5 mm 0.00 in0.0 mm 0.02 in0.5 mm
06:10 AM 49.8°F9.9°C 46.3°F7.9°C 88% 4.5 mph SW7.2 kmh SW 8.9 mph14.3 kmh 29.57 in1001.4 mb 0.02 in0.5 mm 0.00 in0.0 mm 0.02 in0.5 mm
06:15 AM 49.8°F9.9°C 46.3°F7.9°C 88% 6.7 mph SSW10.8 kmh SSW 9.4 mph15.1 kmh 29.57 in1001.4 mb 0.02 in0.5 mm 0.00 in0.0 mm 0.02 in0.5 mm
06:20 AM 49.8°F9.9°C 46.3°F7.9°C 88% 2.9 mph SSW4.7 kmh SSW 10.3 mph16.6 kmh 29.57 in1001.4 mb 0.00 in0.0 mm 0.00 in0.0 mm 0.02 in0.5 mm
06:25 AM 49.8°F9.9°C 46.3°F7.9°C 88% 1.6 mph SW2.6 kmh SW 10.3 mph16.6 kmh 29.57 in1001.4 mb 0.00 in0.0 mm 0.00 in0.0 mm 0.02 in0.5 mm
06:30 AM 49.6°F9.8°C 46.2°F7.9°C 88% 2.0 mph W3.2 kmh W 2.7 mph4.3 kmh 29.57 in1001.4 mb 0.00 in0.0 mm 0.00 in0.0 mm 0.02 in0.5 mm
06:35 AM 49.6°F9.8°C 46.5°F8.1°C 89% 4.7 mph SW7.6 kmh SW 7.2 mph11.6 kmh 29.57 in1001.4 mb 0.00 in0.0 mm 0.00 in0.0 mm 0.02 in0.5 mm
06:40 AM 49.6°F9.8°C 46.5°F8.1°C 89% 2.2 mph SW3.5 kmh SW 7.2 mph11.6 kmh 29.57 in1001.4 mb 0.00 in0.0 mm 0.00 in0.0 mm 0.02 in0.5 mm
06:45 AM 49.6°F9.8°C 46.5°F8.1°C 89% 4.5 mph SW7.2 kmh SW 6.3 mph10.1 kmh 29.58 in1001.7 mb 0.00 in0.0 mm 0.00 in0.0 mm 0.02 in0.5 mm
06:50 AM 49.6°F9.8°C 46.5°F8.1°C 89% 3.4 mph SW5.5 kmh SW 6.3 mph10.1 kmh 29.58 in1001.7 mb 0.00 in0.0 mm 0.00 in0.0 mm 0.02 in0.5 mm
06:55 AM 49.8°F9.9°C 46.3°F7.9°C 88% 7.2 mph SSW11.6 kmh SSW 13.0 mph20.9 kmh 29.58 in1001.7 mb 0.00 in0.0 mm 0.00 in0.0 mm 0.02 in0.5 mm
07:00 AM 50.2°F10.1°C 46.7°F8.2°C 88% 5.6 mph S9.0 kmh S 15.0 mph24.1 kmh 29.58 in1001.7 mb 0.00 in0.0 mm 0.00 in0.0 mm 0.02 in0.5 mm
07:05 AM 50.4°F10.2°C 46.9°F8.3°C 88% 8.9 mph SSW14.3 kmh SSW 15.0 mph24.1 kmh 29.58 in1001.7 mb 0.00 in0.0 mm 0.00 in0.0 mm 0.02 in0.5 mm
07:10 AM 50.5°F10.3°C 47.0°F8.3°C 88% 10.1 mph SSW16.3 kmh SSW 11.6 mph18.7 kmh 29.58 in1001.7 mb 0.00 in0.0 mm 0.00 in0.0 mm 0.02 in0.5 mm
07:15 AM 50.5°F10.3°C 47.0°F8.3°C 88% 7.8 mph SSW12.6 kmh SSW 15.7 mph25.3 kmh 29.58 in1001.7 mb 0.00 in0.0 mm 0.00 in0.0 mm 0.02 in0.5 mm
07:20 AM 50.7°F10.4°C 46.9°F8.3°C 87% 8.7 mph SSW14.0 kmh SSW 15.7 mph25.3 kmh 29.59 in1002.0 mb 0.00 in0.0 mm 0.00 in0.0 mm 0.02 in0.5 mm
07:25 AM 51.1°F10.6°C 47.0°F8.3°C 86% 5.1 mph S8.2 kmh S 16.6 mph26.7 kmh 29.59 in1002.0 mb 0.02 in0.5 mm 0.24 in6.1 mm 0.04 in1.0 mm
07:30 AM 51.1°F10.6°C 46.7°F8.2°C 85% 11.9 mph S19.2 kmh S 16.6 mph26.7 kmh 29.59 in1002.0 mb 0.02 in0.5 mm 0.00 in0.0 mm 0.04 in1.0 mm
07:35 AM 51.1°F10.6°C 46.7°F8.2°C 85% 6.9 mph S11.1 kmh S 15.7 mph25.3 kmh 29.59 in1002.0 mb 0.02 in0.5 mm 0.00 in0.0 mm 0.04 in1.0 mm
07:40 AM 50.9°F10.5°C 46.2°F7.9°C 84% 5.4 mph SSW8.7 kmh SSW 15.7 mph25.3 kmh 29.59 in1002.0 mb 0.02 in0.5 mm 0.00 in0.0 mm 0.04 in1.0 mm
07:45 AM 50.9°F10.5°C 46.2°F7.9°C 84% 6.5 mph SSW10.5 kmh SSW 12.5 mph20.1 kmh 29.59 in1002.0 mb 0.02 in0.5 mm 0.00 in0.0 mm 0.04 in1.0 mm
07:50 AM 50.9°F10.5°C 45.9°F7.7°C 83% 7.6 mph SSW12.2 kmh SSW 13.0 mph20.9 kmh 29.59 in1002.0 mb 0.02 in0.5 mm 0.00 in0.0 mm 0.04 in1.0 mm
07:55 AM 50.9°F10.5°C 45.9°F7.7°C 83% 6.9 mph SSW11.1 kmh SSW 15.0 mph24.1 kmh 29.59 in1002.0 mb 0.02 in0.5 mm 0.00 in0.0 mm 0.04 in1.0 mm
08:00 AM 50.7°F10.4°C 45.4°F7.4°C 82% 16.6 mph SSW26.7 kmh SSW 16.6 mph26.7 kmh 29.60 in1002.4 mb 0.02 in0.5 mm 0.00 in0.0 mm 0.04 in1.0 mm
08:05 AM 50.9°F10.5°C 45.6°F7.6°C 82% 11.4 mph SSW18.3 kmh SSW 16.8 mph27.0 kmh 29.60 in1002.4 mb 0.02 in0.5 mm 0.00 in0.0 mm 0.04 in1.0 mm
08:10 AM 50.9°F10.5°C 45.3°F7.4°C 81% 12.1 mph SSW19.5 kmh SSW 20.1 mph32.3 kmh 29.60 in1002.4 mb 0.02 in0.5 mm 0.00 in0.0 mm 0.04 in1.0 mm
08:15 AM 50.9°F10.5°C 45.6°F7.6°C 82% 20.6 mph SSW33.2 kmh SSW 26.2 mph42.2 kmh 29.61 in1002.7 mb 0.02 in0.5 mm 0.00 in0.0 mm 0.04 in1.0 mm
08:20 AM 50.7°F10.4°C 45.4°F7.4°C 82% 12.5 mph SSW20.1 kmh SSW 26.2 mph42.2 kmh 29.60 in1002.4 mb 0.02 in0.5 mm 0.00 in0.0 mm 0.04 in1.0 mm
08:25 AM 50.5°F10.3°C 45.2°F7.3°C 82% 15.2 mph SSW24.5 kmh SSW 23.3 mph37.5 kmh 29.60 in1002.4 mb 0.00 in0.0 mm 0.00 in0.0 mm 0.04 in1.0 mm
08:30 AM 50.7°F10.4°C 45.4°F7.4°C 82% 12.5 mph S20.1 kmh S 21.7 mph34.9 kmh 29.59 in1002.0 mb 0.00 in0.0 mm 0.00 in0.0 mm 0.04 in1.0 mm
08:35 AM 50.9°F10.5°C 45.6°F7.6°C 82% 11.9 mph S19.2 kmh S 21.7 mph34.9 kmh 29.59 in1002.0 mb 0.00 in0.0 mm 0.00 in0.0 mm 0.04 in1.0 mm
08:40 AM 50.9°F10.5°C 45.9°F7.7°C 83% 21.0 mph SSW33.8 kmh SSW 21.5 mph34.6 kmh 29.59 in1002.0 mb 0.00 in0.0 mm 0.00 in0.0 mm 0.04 in1.0 mm
08:45 AM 50.9°F10.5°C 45.9°F7.7°C 83% 14.3 mph SSW23.0 kmh SSW 21.0 mph33.8 kmh 29.59 in1002.0 mb 0.00 in0.0 mm 0.00 in0.0 mm 0.04 in1.0 mm
08:50 AM 51.1°F10.6°C 46.1°F7.8°C 83% 15.0 mph SSW24.1 kmh SSW 21.0 mph33.8 kmh 29.60 in1002.4 mb 0.00 in0.0 mm 0.00 in0.0 mm 0.04 in1.0 mm
08:55 AM 51.1°F10.6°C 45.8°F7.7°C 82% 9.8 mph SSW15.8 kmh SSW 26.4 mph42.5 kmh 29.60 in1002.4 mb 0.00 in0.0 mm 0.00 in0.0 mm 0.04 in1.0 mm
09:00 AM 51.3°F10.7°C 45.6°F7.6°C 81% 14.3 mph SSW23.0 kmh SSW 26.4 mph42.5 kmh 29.60 in1002.4 mb 0.00 in0.0 mm 0.00 in0.0 mm 0.04 in1.0 mm
09:05 AM 51.6°F10.9°C 46.0°F7.8°C 81% 12.1 mph SSW19.5 kmh SSW 21.3 mph34.3 kmh 29.60 in1002.4 mb 0.00 in0.0 mm 0.00 in0.0 mm 0.04 in1.0 mm
09:10 AM 51.8°F11.0°C 45.9°F7.7°C 80% 13.6 mph SSW21.9 kmh SSW 20.4 mph32.8 kmh 29.60 in1002.4 mb 0.00 in0.0 mm 0.00 in0.0 mm 0.04 in1.0 mm
09:15 AM 52.2°F11.2°C 45.9°F7.7°C 79% 10.5 mph SSW16.9 kmh SSW 19.0 mph30.6 kmh 29.60 in1002.4 mb 0.00 in0.0 mm 0.00 in0.0 mm 0.04 in1.0 mm
09:20 AM 52.5°F11.4°C 46.6°F8.1°C 80% 12.8 mph SSW20.6 kmh SSW 19.2 mph30.9 kmh 29.61 in1002.7 mb 0.00 in0.0 mm 0.00 in0.0 mm 0.04 in1.0 mm
09:25 AM 52.7°F11.5°C 46.4°F8.0°C 79% 12.5 mph SSW20.1 kmh SSW 19.2 mph30.9 kmh 29.61 in1002.7 mb 0.00 in0.0 mm 0.00 in0.0 mm 0.04 in1.0 mm
09:30 AM 53.2°F11.8°C 46.9°F8.3°C 79% 8.1 mph SSW13.0 kmh SSW 18.8 mph30.3 kmh 29.61 in1002.7 mb 0.00 in0.0 mm 0.00 in0.0 mm 0.04 in1.0 mm
09:35 AM 53.2°F11.8°C 46.6°F8.1°C 78% 15.2 mph SSW24.5 kmh SSW 22.6 mph36.4 kmh 29.61 in1002.7 mb 0.00 in0.0 mm 0.00 in0.0 mm 0.04 in1.0 mm
09:40 AM 53.4°F11.9°C 47.1°F8.4°C 79% 9.6 mph SSW15.4 kmh SSW 22.6 mph36.4 kmh 29.60 in1002.4 mb 0.00 in0.0 mm 0.00 in0.0 mm 0.04 in1.0 mm
09:45 AM 53.4°F11.9°C 47.1°F8.4°C 79% 15.7 mph S25.3 kmh S 22.4 mph36.0 kmh 29.60 in1002.4 mb 0.00 in0.0 mm 0.00 in0.0 mm 0.04 in1.0 mm
09:50 AM 53.8°F12.1°C 47.1°F8.4°C 78% 11.2 mph S18.0 kmh S 18.8 mph30.3 kmh 29.60 in1002.4 mb 0.00 in0.0 mm 0.00 in0.0 mm 0.04 in1.0 mm
09:55 AM 54.1°F12.3°C 47.4°F8.6°C 78% 14.5 mph S23.3 kmh S 19.2 mph30.9 kmh 29.60 in1002.4 mb 0.00 in0.0 mm 0.00 in0.0 mm 0.04 in1.0 mm
10:00 AM 54.3°F12.4°C 47.6°F8.7°C 78% 8.1 mph S13.0 kmh S 19.2 mph30.9 kmh 29.60 in1002.4 mb 0.00 in0.0 mm 0.00 in0.0 mm 0.04 in1.0 mm
10:05 AM 54.3°F12.4°C 47.2°F8.4°C 77% 5.8 mph S9.3 kmh S 17.2 mph27.7 kmh 29.60 in1002.4 mb 0.00 in0.0 mm 0.00 in0.0 mm 0.04 in1.0 mm
10:10 AM 54.7°F12.6°C 47.6°F8.7°C 77% 15.2 mph S24.5 kmh S 17.2 mph27.7 kmh 29.60 in1002.4 mb 0.00 in0.0 mm 0.00 in0.0 mm 0.04 in1.0 mm
10:15 AM 55.0°F12.8°C 47.9°F8.8°C 77% 6.0 mph S9.7 kmh S 15.2 mph24.5 kmh 29.60 in1002.4 mb 0.00 in0.0 mm 0.00 in0.0 mm 0.04 in1.0 mm
10:20 AM 55.4°F13.0°C 47.9°F8.8°C 76% 2.0 mph S3.2 kmh S 15.2 mph24.5 kmh 29.60 in1002.4 mb 0.00 in0.0 mm 0.00 in0.0 mm 0.04 in1.0 mm
10:25 AM 55.8°F13.2°C 47.9°F8.8°C 75% 3.6 mph S5.8 kmh S 7.4 mph11.9 kmh 29.60 in1002.4 mb 0.00 in0.0 mm 0.00 in0.0 mm 0.04 in1.0 mm
10:30 AM 55.9°F13.3°C 48.1°F8.9°C 75% 3.1 mph S5.0 kmh S 7.8 mph12.6 kmh 29.60 in1002.4 mb 0.00 in0.0 mm 0.00 in0.0 mm 0.04 in1.0 mm
10:35 AM 56.1°F13.4°C 48.3°F9.1°C 75% Calm Calm 7.8 mph12.6 kmh 29.60 in1002.4 mb 0.00 in0.0 mm 0.00 in0.0 mm 0.04 in1.0 mm
10:40 AM 56.5°F13.6°C 48.2°F9.0°C 74% 3.4 mph S5.5 kmh S 8.3 mph13.4 kmh 29.61 in1002.7 mb 0.00 in0.0 mm 0.00 in0.0 mm 0.04 in1.0 mm
10:45 AM 56.5°F13.6°C 47.9°F8.8°C 73% 6.0 mph S9.7 kmh S 15.9 mph25.6 kmh 29.61 in1002.7 mb 0.00 in0.0 mm 0.00 in0.0 mm 0.04 in1.0 mm
10:50 AM 56.5°F13.6°C 47.9°F8.8°C 73% 1.6 mph S2.6 kmh S 15.9 mph25.6 kmh 29.60 in1002.4 mb 0.00 in0.0 mm 0.00 in0.0 mm 0.04 in1.0 mm
10:55 AM 56.3°F13.5°C 47.7°F8.7°C 73% 7.4 mph S11.9 kmh S 13.0 mph20.9 kmh 29.61 in1002.7 mb 0.00 in0.0 mm 0.00 in0.0 mm 0.04 in1.0 mm
11:00 AM 55.8°F13.2°C 47.2°F8.4°C 73% 10.5 mph S16.9 kmh S 16.8 mph27.0 kmh 29.61 in1002.7 mb 0.00 in0.0 mm 0.00 in0.0 mm 0.04 in1.0 mm
11:05 AM 55.4°F13.0°C 47.6°F8.7°C 75% 5.4 mph S8.7 kmh S 16.8 mph27.0 kmh 29.61 in1002.7 mb 0.00 in0.0 mm 0.00 in0.0 mm 0.04 in1.0 mm
11:10 AM 55.2°F12.9°C 47.4°F8.6°C 75% 11.6 mph S18.7 kmh S 15.7 mph25.3 kmh 29.61 in1002.7 mb 0.00 in0.0 mm 0.00 in0.0 mm 0.04 in1.0 mm
11:15 AM 55.6°F13.1°C 47.7°F8.7°C 75% 4.7 mph S7.6 kmh S 15.9 mph25.6 kmh 29.60 in1002.4 mb 0.00 in0.0 mm 0.00 in0.0 mm 0.04 in1.0 mm
11:20 AM 55.9°F13.3°C 48.1°F8.9°C 75% 5.8 mph S9.3 kmh S 15.9 mph25.6 kmh 29.60 in1002.4 mb 0.00 in0.0 mm 0.00 in0.0 mm 0.04 in1.0 mm
11:25 AM 56.1°F13.4°C 47.6°F8.7°C 73% 5.4 mph S8.7 kmh S 15.2 mph24.5 kmh 29.60 in1002.4 mb 0.00 in0.0 mm 0.00 in0.0 mm 0.04 in1.0 mm
11:30 AM 56.1°F13.4°C 47.6°F8.7°C 73% 5.1 mph S8.2 kmh S 12.5 mph20.1 kmh 29.60 in1002.4 mb 0.00 in0.0 mm 0.00 in0.0 mm 0.04 in1.0 mm
11:35 AM 56.1°F13.4°C 47.6°F8.7°C 73% 2.0 mph S3.2 kmh S 17.2 mph27.7 kmh 29.60 in1002.4 mb 0.00 in0.0 mm 0.00 in0.0 mm 0.04 in1.0 mm
11:40 AM 56.1°F13.4°C 47.2°F8.4°C 72% 6.9 mph S11.1 kmh S 17.2 mph27.7 kmh 29.60 in1002.4 mb 0.00 in0.0 mm 0.00 in0.0 mm 0.04 in1.0 mm
11:45 AM 56.5°F13.6°C 47.9°F8.8°C 73% 3.6 mph S5.8 kmh S 14.5 mph23.3 kmh 29.60 in1002.4 mb 0.00 in0.0 mm 0.00 in0.0 mm 0.04 in1.0 mm
11:50 AM 57.0°F13.9°C 48.0°F8.9°C 71% 4.7 mph S7.6 kmh S 11.0 mph17.7 kmh 29.60 in1002.4 mb 0.00 in0.0 mm 0.00 in0.0 mm 0.04 in1.0 mm
11:55 AM 57.0°F13.9°C 47.7°F8.7°C 71% Calm Calm 10.5 mph16.9 kmh 29.59 in1002.0 mb 0.00 in0.0 mm 0.00 in0.0 mm 0.04 in1.0 mm
12:00 PM 56.8°F13.8°C 47.2°F8.4°C 70% Calm Calm 13.2 mph21.2 kmh 29.59 in1002.0 mb 0.00 in0.0 mm 0.00 in0.0 mm 0.04 in1.0 mm
12:05 PM 56.8°F13.8°C 46.7°F8.2°C 69% 9.6 mph E15.4 kmh E 16.8 mph27.0 kmh 29.61 in1002.7 mb 0.00 in0.0 mm 0.00 in0.0 mm 0.04 in1.0 mm
12:10 PM 55.0°F12.8°C 44.3°F6.8°C 67% 8.1 mph N13.0 kmh N 16.8 mph27.0 kmh 29.62 in1003.0 mb 0.00 in0.0 mm 0.00 in0.0 mm 0.04 in1.0 mm
12:15 PM 53.8°F12.1°C 44.6°F7.0°C 71% 1.3 mph N2.1 kmh N 15.2 mph24.5 kmh 29.61 in1002.7 mb 0.00 in0.0 mm 0.00 in0.0 mm 0.04 in1.0 mm
12:20 PM 52.9°F11.6°C 44.5°F6.9°C 73% 5.1 mph NNE8.2 kmh NNE 13.4 mph21.6 kmh 29.60 in1002.4 mb 0.00 in0.0 mm 0.00 in0.0 mm 0.04 in1.0 mm
12:25 PM 52.5°F11.4°C 44.8°F7.1°C 75% Calm Calm 13.4 mph21.6 kmh 29.60 in1002.4 mb 0.00 in0.0 mm 0.00 in0.0 mm 0.04 in1.0 mm
12:30 PM 52.3°F11.3°C 45.0°F7.2°C 76% 4.5 mph SE7.2 kmh SE 8.3 mph13.4 kmh 29.60 in1002.4 mb 0.00 in0.0 mm 0.00 in0.0 mm 0.04 in1.0 mm
12:35 PM 52.3°F11.3°C 45.4°F7.4°C 77% 3.6 mph SE5.8 kmh SE 8.3 mph13.4 kmh 29.60 in1002.4 mb 0.00 in0.0 mm 0.00 in0.0 mm 0.04 in1.0 mm
12:40 PM 52.3°F11.3°C 46.0°F7.8°C 79% Calm Calm 4.7 mph7.6 kmh 29.60 in1002.4 mb 0.00 in0.0 mm 0.00 in0.0 mm 0.04 in1.0 mm
12:45 PM 52.3°F11.3°C 46.4°F8.0°C 80% Calm Calm 4.7 mph7.6 kmh 29.60 in1002.4 mb 0.00 in0.0 mm 0.00 in0.0 mm 0.04 in1.0 mm
12:50 PM 52.5°F11.4°C 46.6°F8.1°C 80% 5.4 mph S8.7 kmh S 5.6 mph9.0 kmh 29.60 in1002.4 mb 0.00 in0.0 mm 0.00 in0.0 mm 0.04 in1.0 mm
12:55 PM 52.9°F11.6°C 46.9°F8.3°C 80% 1.3 mph SSW2.1 kmh SSW 6.7 mph10.8 kmh 29.59 in1002.0 mb 0.00 in0.0 mm 0.00 in0.0 mm 0.04 in1.0 mm
01:00 PM 53.6°F12.0°C 48.0°F8.9°C 81% Calm Calm 6.7 mph10.8 kmh 29.59 in1002.0 mb 0.00 in0.0 mm 0.00 in0.0 mm 0.04 in1.0 mm
01:05 PM 53.8°F12.1°C 47.8°F8.8°C 80% 2.5 mph NE4.0 kmh NE 4.3 mph6.9 kmh 29.59 in1002.0 mb 0.00 in0.0 mm 0.00 in0.0 mm 0.04 in1.0 mm
01:10 PM 53.8°F12.1°C 47.8°F8.8°C 80% Calm Calm 3.8 mph6.1 kmh 29.59 in1002.0 mb 0.00 in0.0 mm 0.00 in0.0 mm 0.04 in1.0 mm
01:15 PM 54.0°F12.2°C 48.0°F8.9°C 80% Calm Calm 3.8 mph6.1 kmh 29.58 in1001.7 mb 0.00 in0.0 mm 0.00 in0.0 mm 0.04 in1.0 mm
01:20 PM 54.3°F12.4°C 48.3°F9.1°C 80% Calm Calm 3.1 mph5.0 kmh 29.58 in1001.7 mb 0.00 in0.0 mm 0.00 in0.0 mm 0.04 in1.0 mm
01:25 PM 54.3°F12.4°C 47.9°F8.8°C 79% 2.9 mph SSW4.7 kmh SSW 7.4 mph11.9 kmh 29.59 in1002.0 mb 0.00 in0.0 mm 0.00 in0.0 mm 0.04 in1.0 mm
01:30 PM 54.3°F12.4°C 47.6°F8.7°C 78% Calm Calm 7.4 mph11.9 kmh 29.59 in1002.0 mb 0.00 in0.0 mm 0.00 in0.0 mm 0.04 in1.0 mm
01:35 PM 54.5°F12.5°C 47.8°F8.8°C 78% Calm Calm 4.7 mph7.6 kmh 29.59 in1002.0 mb 0.00 in0.0 mm 0.00 in0.0 mm 0.04 in1.0 mm
01:40 PM 54.9°F12.7°C 47.8°F8.8°C 77% 2.2 mph SSW3.5 kmh SSW 6.5 mph10.5 kmh 29.58 in1001.7 mb 0.00 in0.0 mm 0.00 in0.0 mm 0.04 in1.0 mm
01:45 PM 55.6°F13.1°C 48.4°F9.1°C 77% 1.8 mph S2.9 kmh S 6.5 mph10.5 kmh 29.58 in1001.7 mb 0.00 in0.0 mm 0.00 in0.0 mm 0.04 in1.0 mm
01:50 PM 55.9°F13.3°C 48.1°F8.9°C 75% Calm Calm 5.1 mph8.2 kmh 29.58 in1001.7 mb 0.00 in0.0 mm 0.00 in0.0 mm 0.04 in1.0 mm
01:55 PM 56.5°F13.6°C 48.2°F9.0°C 74% 2.0 mph SSE3.2 kmh SSE 5.8 mph9.3 kmh 29.58 in1001.7 mb 0.00 in0.0 mm 0.00 in0.0 mm 0.04 in1.0 mm
02:00 PM 56.8°F13.8°C 47.9°F8.8°C 72% 3.6 mph SE5.8 kmh SE 6.0 mph9.7 kmh 29.57 in1001.4 mb 0.00 in0.0 mm 0.00 in0.0 mm 0.04 in1.0 mm
02:05 PM 56.8°F13.8°C 47.2°F8.4°C 70% 6.9 mph E11.1 kmh E 9.2 mph14.8 kmh 29.58 in1001.7 mb 0.00 in0.0 mm 0.00 in0.0 mm 0.04 in1.0 mm
02:10 PM 56.8°F13.8°C 47.2°F8.4°C 70% 4.3 mph E6.9 kmh E 9.2 mph14.8 kmh 29.58 in1001.7 mb 0.00 in0.0 mm 0.00 in0.0 mm 0.04 in1.0 mm
02:15 PM 57.0°F13.9°C 46.9°F8.3°C 69% 4.0 mph E6.4 kmh E 8.1 mph13.0 kmh 29.58 in1001.7 mb 0.00 in0.0 mm 0.00 in0.0 mm 0.04 in1.0 mm
02:20 PM 57.0°F13.9°C 46.5°F8.1°C 68% 1.6 mph ESE2.6 kmh ESE 9.2 mph14.8 kmh 29.58 in1001.7 mb 0.00 in0.0 mm 0.00 in0.0 mm 0.04 in1.0 mm
02:25 PM 56.8°F13.8°C 46.7°F8.2°C 69% 5.6 mph ENE9.0 kmh ENE 9.2 mph14.8 kmh 29.58 in1001.7 mb 0.00 in0.0 mm 0.00 in0.0 mm 0.04 in1.0 mm
02:30 PM 56.5°F13.6°C 47.2°F8.4°C 71% 2.0 mph NE3.2 kmh NE 12.1 mph19.5 kmh 29.58 in1001.7 mb 0.00 in0.0 mm 0.00 in0.0 mm 0.04 in1.0 mm
02:35 PM 55.9°F13.3°C 47.4°F8.6°C 73% 4.7 mph NE7.6 kmh NE 13.0 mph20.9 kmh 29.58 in1001.7 mb 0.00 in0.0 mm 0.00 in0.0 mm 0.04 in1.0 mm
02:40 PM 55.6°F13.1°C 47.0°F8.3°C 73% 4.3 mph NE6.9 kmh NE 13.0 mph20.9 kmh 29.58 in1001.7 mb 0.00 in0.0 mm 0.00 in0.0 mm 0.04 in1.0 mm
02:45 PM 55.6°F13.1°C 47.4°F8.6°C 74% 3.8 mph ENE6.1 kmh ENE 10.1 mph16.3 kmh 29.58 in1001.7 mb 0.00 in0.0 mm 0.00 in0.0 mm 0.04 in1.0 mm
02:50 PM 55.8°F13.2°C 47.6°F8.7°C 74% Calm Calm 6.3 mph10.1 kmh 29.58 in1001.7 mb 0.00 in0.0 mm 0.00 in0.0 mm 0.04 in1.0 mm
02:55 PM 55.9°F13.3°C 47.7°F8.7°C 74% 5.1 mph E8.2 kmh E 6.3 mph10.1 kmh 29.58 in1001.7 mb 0.00 in0.0 mm 0.00 in0.0 mm 0.04 in1.0 mm
03:00 PM 55.8°F13.2°C 47.2°F8.4°C 73% 3.8 mph E6.1 kmh E 8.1 mph13.0 kmh 29.58 in1001.7 mb 0.00 in0.0 mm 0.00 in0.0 mm 0.04 in1.0 mm
03:05 PM 55.9°F13.3°C 47.7°F8.7°C 74% Calm Calm 8.1 mph13.0 kmh 29.57 in1001.4 mb 0.00 in0.0 mm 0.00 in0.0 mm 0.04 in1.0 mm
03:10 PM 56.3°F13.5°C 47.7°F8.7°C 73% Calm Calm 6.0 mph9.7 kmh 29.58 in1001.7 mb 0.00 in0.0 mm 0.00 in0.0 mm 0.04 in1.0 mm
03:15 PM 56.5°F13.6°C 47.9°F8.8°C 73% 2.9 mph NE4.7 kmh NE 5.4 mph8.7 kmh 29.57 in1001.4 mb 0.00 in0.0 mm 0.00 in0.0 mm 0.04 in1.0 mm
03:20 PM 56.3°F13.5°C 47.7°F8.7°C 73% 2.9 mph NE4.7 kmh NE 7.6 mph12.2 kmh 29.57 in1001.4 mb 0.00 in0.0 mm 0.00 in0.0 mm 0.04 in1.0 mm
03:25 PM 56.3°F13.5°C 47.4°F8.6°C 72% 2.2 mph ENE3.5 kmh ENE 7.6 mph12.2 kmh 29.57 in1001.4 mb 0.00 in0.0 mm 0.00 in0.0 mm 0.04 in1.0 mm
03:30 PM 56.3°F13.5°C 46.7°F8.2°C 70% 2.5 mph SE4.0 kmh SE 7.6 mph12.2 kmh 29.58 in1001.7 mb 0.00 in0.0 mm 0.00 in0.0 mm 0.04 in1.0 mm
03:35 PM 56.1°F13.4°C 46.1°F7.8°C 69% Calm Calm 10.5 mph16.9 kmh 29.58 in1001.7 mb 0.00 in0.0 mm 0.00 in0.0 mm 0.04 in1.0 mm
03:40 PM 56.1°F13.4°C 45.7°F7.6°C 68% 4.7 mph S7.6 kmh S 10.5 mph16.9 kmh 29.58 in1001.7 mb 0.00 in0.0 mm 0.00 in0.0 mm 0.04 in1.0 mm
03:45 PM 55.9°F13.3°C 45.5°F7.5°C 68% 5.1 mph SSW8.2 kmh SSW 8.9 mph14.3 kmh 29.58 in1001.7 mb 0.00 in0.0 mm 0.00 in0.0 mm 0.04 in1.0 mm
03:50 PM 55.9°F13.3°C 45.5°F7.5°C 68% 6.5 mph S10.5 kmh S 10.1 mph16.3 kmh 29.58 in1001.7 mb 0.00 in0.0 mm 0.00 in0.0 mm 0.04 in1.0 mm
03:55 PM 55.8°F13.2°C 45.8°F7.7°C 69% 6.3 mph S10.1 kmh S 10.1 mph16.3 kmh 29.58 in1001.7 mb 0.00 in0.0 mm 0.00 in0.0 mm 0.04 in1.0 mm
04:00 PM 55.6°F13.1°C 45.6°F7.6°C 69% 4.9 mph S7.9 kmh S 8.5 mph13.7 kmh 29.58 in1001.7 mb 0.00 in0.0 mm 0.00 in0.0 mm 0.04 in1.0 mm
04:05 PM 55.4°F13.0°C 45.4°F7.4°C 69% Calm Calm 8.5 mph13.7 kmh 29.58 in1001.7 mb 0.00 in0.0 mm 0.00 in0.0 mm 0.04 in1.0 mm
04:10 PM 55.2°F12.9°C 45.3°F7.4°C 69% 3.4 mph S5.5 kmh S 5.1 mph8.2 kmh 29.58 in1001.7 mb 0.00 in0.0 mm 0.00 in0.0 mm 0.04 in1.0 mm
04:15 PM 55.2°F12.9°C 45.3°F7.4°C 69% Calm Calm 7.4 mph11.9 kmh 29.58 in1001.7 mb 0.00 in0.0 mm 0.00 in0.0 mm 0.04 in1.0 mm
04:20 PM 55.0°F12.8°C 45.5°F7.5°C 70% 2.2 mph SSW3.5 kmh SSW 9.6 mph15.4 kmh 29.58 in1001.7 mb 0.00 in0.0 mm 0.00 in0.0 mm 0.04 in1.0 mm
04:25 PM 54.9°F12.7°C 45.7°F7.6°C 71% 2.5 mph SSW4.0 kmh SSW 10.3 mph16.6 kmh 29.58 in1001.7 mb 0.00 in0.0 mm 0.00 in0.0 mm 0.04 in1.0 mm
04:30 PM 54.7°F12.6°C 45.5°F7.5°C 71% 5.1 mph SSW8.2 kmh SSW 10.3 mph16.6 kmh 29.58 in1001.7 mb 0.00 in0.0 mm 0.00 in0.0 mm 0.04 in1.0 mm
04:35 PM 54.7°F12.6°C 45.5°F7.5°C 72% 1.1 mph SSW1.8 kmh SSW 10.3 mph16.6 kmh 29.58 in1001.7 mb 0.00 in0.0 mm 0.00 in0.0 mm 0.04 in1.0 mm
04:40 PM 54.5°F12.5°C 45.7°F7.6°C 72% 1.6 mph SSW2.6 kmh SSW 6.3 mph10.1 kmh 29.58 in1001.7 mb 0.00 in0.0 mm 0.00 in0.0 mm 0.04 in1.0 mm
04:45 PM 54.3°F12.4°C 45.5°F7.5°C 72% 2.2 mph SE3.5 kmh SE 5.4 mph8.7 kmh 29.58 in1001.7 mb 0.00 in0.0 mm 0.00 in0.0 mm 0.04 in1.0 mm
04:50 PM 54.1°F12.3°C 45.3°F7.4°C 72% 1.1 mph ESE1.8 kmh ESE 5.4 mph8.7 kmh 29.58 in1001.7 mb 0.00 in0.0 mm 0.00 in0.0 mm 0.04 in1.0 mm
04:55 PM 54.0°F12.2°C 44.4°F6.9°C 70% 2.2 mph SW3.5 kmh SW 4.0 mph6.4 kmh 29.58 in1001.7 mb 0.00 in0.0 mm 0.00 in0.0 mm 0.04 in1.0 mm
05:00 PM 53.8°F12.1°C 44.6°F7.0°C 71% 3.1 mph S5.0 kmh S 4.0 mph6.4 kmh 29.58 in1001.7 mb 0.00 in0.0 mm 0.00 in0.0 mm 0.04 in1.0 mm
05:05 PM 53.8°F12.1°C 44.2°F6.8°C 70% Calm Calm 4.0 mph6.4 kmh 29.58 in1001.7 mb 0.00 in0.0 mm 0.00 in0.0 mm 0.04 in1.0 mm
05:10 PM 53.8°F12.1°C 44.2°F6.8°C 70% 4.5 mph E7.2 kmh E 4.5 mph7.2 kmh 29.58 in1001.7 mb 0.00 in0.0 mm 0.00 in0.0 mm 0.04 in1.0 mm
05:15 PM 53.4°F11.9°C 44.2°F6.8°C 71% 2.2 mph E3.5 kmh E 4.5 mph7.2 kmh 29.58 in1001.7 mb 0.00 in0.0 mm 0.00 in0.0 mm 0.04 in1.0 mm
05:20 PM 53.4°F11.9°C 44.2°F6.8°C 71% 1.6 mph ESE2.6 kmh ESE 4.3 mph6.9 kmh 29.58 in1001.7 mb 0.00 in0.0 mm 0.00 in0.0 mm 0.04 in1.0 mm
05:25 PM 53.2°F11.8°C 44.4°F6.9°C 72% Calm Calm 9.2 mph14.8 kmh 29.59 in1002.0 mb 0.00 in0.0 mm 0.00 in0.0 mm 0.04 in1.0 mm
05:30 PM 53.2°F11.8°C 44.4°F6.9°C 72% 2.2 mph SSE3.5 kmh SSE 9.2 mph14.8 kmh 29.59 in1002.0 mb 0.00 in0.0 mm 0.00 in0.0 mm 0.04 in1.0 mm
05:35 PM 52.9°F11.6°C 44.1°F6.7°C 72% 2.5 mph S4.0 kmh S 8.1 mph13.0 kmh 29.59 in1002.0 mb 0.00 in0.0 mm 0.00 in0.0 mm 0.04 in1.0 mm
05:40 PM 52.9°F11.6°C 44.5°F6.9°C 73% Calm Calm 8.1 mph13.0 kmh 29.59 in1002.0 mb 0.00 in0.0 mm 0.00 in0.0 mm 0.04 in1.0 mm
05:45 PM 52.7°F11.5°C 44.3°F6.8°C 73% 2.0 mph S3.2 kmh S 6.0 mph9.7 kmh 29.60 in1002.4 mb 0.00 in0.0 mm 0.00 in0.0 mm 0.04 in1.0 mm
05:50 PM 52.7°F11.5°C 44.3°F6.8°C 73% 1.6 mph SE2.6 kmh SE 4.5 mph7.2 kmh 29.60 in1002.4 mb 0.00 in0.0 mm 0.00 in0.0 mm 0.04 in1.0 mm
05:55 PM 52.5°F11.4°C 44.5°F6.9°C 74% Calm Calm 8.3 mph13.4 kmh 29.60 in1002.4 mb 0.00 in0.0 mm 0.00 in0.0 mm 0.04 in1.0 mm
06:00 PM 52.5°F11.4°C 44.5°F6.9°C 74% 2.5 mph SSE4.0 kmh SSE 8.3 mph13.4 kmh 29.60 in1002.4 mb 0.00 in0.0 mm 0.00 in0.0 mm 0.04 in1.0 mm
06:05 PM 52.5°F11.4°C 44.5°F6.9°C 74% 1.6 mph SE2.6 kmh SE 5.4 mph8.7 kmh 29.60 in1002.4 mb 0.00 in0.0 mm 0.00 in0.0 mm 0.04 in1.0 mm
06:10 PM 52.5°F11.4°C 44.5°F6.9°C 74% 4.0 mph SE6.4 kmh SE 5.8 mph9.3 kmh 29.60 in1002.4 mb 0.00 in0.0 mm 0.00 in0.0 mm 0.04 in1.0 mm
06:15 PM 52.5°F11.4°C 44.5°F6.9°C 74% Calm Calm 5.8 mph9.3 kmh 29.60 in1002.4 mb 0.00 in0.0 mm 0.00 in0.0 mm 0.04 in1.0 mm
06:20 PM 52.5°F11.4°C 44.5°F6.9°C 74% 4.0 mph SE6.4 kmh SE 6.0 mph9.7 kmh 29.60 in1002.4 mb 0.00 in0.0 mm 0.00 in0.0 mm 0.04 in1.0 mm
06:25 PM 52.5°F11.4°C 44.5°F6.9°C 74% 3.6 mph SE5.8 kmh SE 6.0 mph9.7 kmh 29.61 in1002.7 mb 0.00 in0.0 mm 0.00 in0.0 mm 0.04 in1.0 mm
06:30 PM 52.3°F11.3°C 44.3°F6.8°C 74% Calm Calm 5.4 mph8.7 kmh 29.61 in1002.7 mb 0.00 in0.0 mm 0.00 in0.0 mm 0.04 in1.0 mm
06:35 PM 52.3°F11.3°C 44.3°F6.8°C 74% 3.8 mph SE6.1 kmh SE 6.7 mph10.8 kmh 29.61 in1002.7 mb 0.00 in0.0 mm 0.00 in0.0 mm 0.04 in1.0 mm
06:40 PM 52.3°F11.3°C 44.7°F7.1°C 75% 4.5 mph SE7.2 kmh SE 10.7 mph17.2 kmh 29.61 in1002.7 mb 0.00 in0.0 mm 0.00 in0.0 mm 0.04 in1.0 mm
06:45 PM 52.2°F11.2°C 44.5°F6.9°C 75% 1.6 mph SE2.6 kmh SE 10.7 mph17.2 kmh 29.61 in1002.7 mb 0.00 in0.0 mm 0.00 in0.0 mm 0.04 in1.0 mm
06:50 PM 52.0°F11.1°C 44.3°F6.8°C 75% 2.2 mph ESE3.5 kmh ESE 5.1 mph8.2 kmh 29.60 in1002.4 mb 0.00 in0.0 mm 0.00 in0.0 mm 0.04 in1.0 mm
06:55 PM 52.0°F11.1°C 44.3°F6.8°C 75% 5.8 mph SE9.3 kmh SE 6.5 mph10.5 kmh 29.61 in1002.7 mb 0.00 in0.0 mm 0.00 in0.0 mm 0.04 in1.0 mm
07:00 PM 51.8°F11.0°C 44.2°F6.8°C 75% 0.7 mph SE1.1 kmh SE 6.7 mph10.8 kmh 29.61 in1002.7 mb 0.00 in0.0 mm 0.00 in0.0 mm 0.04 in1.0 mm
07:05 PM 51.8°F11.0°C 44.2°F6.8°C 75% 2.0 mph SSE3.2 kmh SSE 6.7 mph10.8 kmh 29.61 in1002.7 mb 0.00 in0.0 mm 0.00 in0.0 mm 0.04 in1.0 mm
07:10 PM 51.6°F10.9°C 44.3°F6.8°C 76% 2.9 mph S4.7 kmh S 7.8 mph12.6 kmh 29.61 in1002.7 mb 0.00 in0.0 mm 0.00 in0.0 mm 0.04 in1.0 mm
07:15 PM 51.6°F10.9°C 44.3°F6.8°C 76% 0.9 mph SSW1.4 kmh SSW 7.8 mph12.6 kmh 29.61 in1002.7 mb 0.00 in0.0 mm 0.00 in0.0 mm 0.04 in1.0 mm
07:20 PM 51.6°F10.9°C 44.7°F7.1°C 77% 4.5 mph S7.2 kmh S 6.5 mph10.5 kmh 29.61 in1002.7 mb 0.00 in0.0 mm 0.00 in0.0 mm 0.04 in1.0 mm
07:25 PM 51.4°F10.8°C 44.5°F6.9°C 77% 4.3 mph SSE6.9 kmh SSE 8.3 mph13.4 kmh 29.60 in1002.4 mb 0.00 in0.0 mm 0.00 in0.0 mm 0.04 in1.0 mm
07:30 PM 51.4°F10.8°C 44.5°F6.9°C 77% 4.0 mph SSE6.4 kmh SSE 8.3 mph13.4 kmh 29.60 in1002.4 mb 0.00 in0.0 mm 0.00 in0.0 mm 0.04 in1.0 mm
07:35 PM 51.4°F10.8°C 44.8°F7.1°C 78% 4.5 mph SE7.2 kmh SE 6.0 mph9.7 kmh 29.60 in1002.4 mb 0.00 in0.0 mm 0.00 in0.0 mm 0.04 in1.0 mm
07:40 PM 51.3°F10.7°C 44.6°F7.0°C 78% 4.7 mph ESE7.6 kmh ESE 7.6 mph12.2 kmh 29.60 in1002.4 mb 0.00 in0.0 mm 0.00 in0.0 mm 0.04 in1.0 mm
07:45 PM 51.1°F10.6°C 44.5°F6.9°C 78% 5.8 mph ESE9.3 kmh ESE 7.6 mph12.2 kmh 29.60 in1002.4 mb 0.00 in0.0 mm 0.00 in0.0 mm 0.04 in1.0 mm
07:50 PM 51.1°F10.6°C 44.1°F6.7°C 77% 5.1 mph ESE8.2 kmh ESE 7.6 mph12.2 kmh 29.60 in1002.4 mb 0.00 in0.0 mm 0.00 in0.0 mm 0.04 in1.0 mm
07:55 PM 51.1°F10.6°C 44.1°F6.7°C 77% 1.6 mph SE2.6 kmh SE 9.2 mph14.8 kmh 29.60 in1002.4 mb 0.00 in0.0 mm 0.00 in0.0 mm 0.04 in1.0 mm
08:00 PM 51.1°F10.6°C 44.1°F6.7°C 77% 4.7 mph SE7.6 kmh SE 9.2 mph14.8 kmh 29.60 in1002.4 mb 0.00 in0.0 mm 0.00 in0.0 mm 0.04 in1.0 mm
08:05 PM 51.1°F10.6°C 44.1°F6.7°C 77% Calm Calm 8.1 mph13.0 kmh 29.60 in1002.4 mb 0.00 in0.0 mm 0.00 in0.0 mm 0.04 in1.0 mm
08:10 PM 51.1°F10.6°C 44.1°F6.7°C 77% 2.0 mph SE3.2 kmh SE 8.1 mph13.0 kmh 29.60 in1002.4 mb 0.00 in0.0 mm 0.00 in0.0 mm 0.04 in1.0 mm
08:15 PM 50.9°F10.5°C 43.9°F6.6°C 77% 1.3 mph SE2.1 kmh SE 8.1 mph13.0 kmh 29.61 in1002.7 mb 0.00 in0.0 mm 0.00 in0.0 mm 0.04 in1.0 mm
08:20 PM 50.9°F10.5°C 43.9°F6.6°C 77% 2.2 mph SE3.5 kmh SE 8.1 mph13.0 kmh 29.61 in1002.7 mb 0.00 in0.0 mm 0.00 in0.0 mm 0.04 in1.0 mm
08:25 PM 50.9°F10.5°C 43.9°F6.6°C 77% 3.1 mph SE5.0 kmh SE 8.1 mph13.0 kmh 29.61 in1002.7 mb 0.00 in0.0 mm 0.00 in0.0 mm 0.04 in1.0 mm
08:30 PM 50.9°F10.5°C 43.9°F6.6°C 77% Calm Calm 8.3 mph13.4 kmh 29.61 in1002.7 mb 0.00 in0.0 mm 0.00 in0.0 mm 0.04 in1.0 mm
08:35 PM 50.7°F10.4°C 43.8°F6.6°C 77% 3.8 mph SE6.1 kmh SE 8.3 mph13.4 kmh 29.61 in1002.7 mb 0.00 in0.0 mm 0.00 in0.0 mm 0.04 in1.0 mm
08:40 PM 50.7°F10.4°C 43.8°F6.6°C 77% 4.0 mph ESE6.4 kmh ESE 6.9 mph11.1 kmh 29.62 in1003.0 mb 0.00 in0.0 mm 0.00 in0.0 mm 0.04 in1.0 mm
08:45 PM 50.7°F10.4°C 43.8°F6.6°C 77% 5.8 mph S9.3 kmh S 12.1 mph19.5 kmh 29.61 in1002.7 mb 0.00 in0.0 mm 0.00 in0.0 mm 0.04 in1.0 mm
08:50 PM 50.5°F10.3°C 43.2°F6.2°C 76% Calm Calm 12.1 mph19.5 kmh 29.61 in1002.7 mb 0.00 in0.0 mm 0.00 in0.0 mm 0.04 in1.0 mm
08:55 PM 50.5°F10.3°C 43.2°F6.2°C 76% Calm Calm 6.0 mph9.7 kmh 29.61 in1002.7 mb 0.00 in0.0 mm 0.00 in0.0 mm 0.04 in1.0 mm
09:00 PM 50.5°F10.3°C 43.2°F6.2°C 76% 3.6 mph SE5.8 kmh SE 5.6 mph9.0 kmh 29.61 in1002.7 mb 0.00 in0.0 mm 0.00 in0.0 mm 0.04 in1.0 mm
09:05 PM 50.7°F10.4°C 43.8°F6.6°C 77% 3.6 mph E5.8 kmh E 11.9 mph19.2 kmh 29.61 in1002.7 mb 0.00 in0.0 mm 0.00 in0.0 mm 0.04 in1.0 mm
09:10 PM 50.7°F10.4°C 43.8°F6.6°C 77% Calm Calm 11.9 mph19.2 kmh 29.61 in1002.7 mb 0.00 in0.0 mm 0.00 in0.0 mm 0.04 in1.0 mm
09:15 PM 50.5°F10.3°C 43.6°F6.4°C 77% 6.0 mph SE9.7 kmh SE 9.4 mph15.1 kmh 29.62 in1003.0 mb 0.00 in0.0 mm 0.00 in0.0 mm 0.04 in1.0 mm
09:20 PM 50.5°F10.3°C 43.6°F6.4°C 77% 2.2 mph SE3.5 kmh SE 8.9 mph14.3 kmh 29.61 in1002.7 mb 0.00 in0.0 mm 0.00 in0.0 mm 0.04 in1.0 mm
09:25 PM 50.5°F10.3°C 43.6°F6.4°C 77% Calm Calm 8.9 mph14.3 kmh 29.61 in1002.7 mb 0.00 in0.0 mm 0.00 in0.0 mm 0.04 in1.0 mm
09:30 PM 50.5°F10.3°C 43.6°F6.4°C 77% 4.0 mph SE6.4 kmh SE 6.7 mph10.8 kmh 29.62 in1003.0 mb 0.00 in0.0 mm 0.00 in0.0 mm 0.04 in1.0 mm
09:35 PM 50.5°F10.3°C 43.9°F6.6°C 78% Calm Calm 10.5 mph16.9 kmh 29.62 in1003.0 mb 0.00 in0.0 mm 0.00 in0.0 mm 0.04 in1.0 mm
09:40 PM 50.5°F10.3°C 43.9°F6.6°C 78% Calm Calm 10.5 mph16.9 kmh 29.62 in1003.0 mb 0.00 in0.0 mm 0.00 in0.0 mm 0.04 in1.0 mm
09:45 PM 50.5°F10.3°C 43.9°F6.6°C 78% 3.8 mph SE6.1 kmh SE 7.2 mph11.6 kmh 29.62 in1003.0 mb 0.00 in0.0 mm 0.00 in0.0 mm 0.04 in1.0 mm
09:50 PM 50.4°F10.2°C 43.7°F6.5°C 78% 2.5 mph SE4.0 kmh SE 5.1 mph8.2 kmh 29.62 in1003.0 mb 0.00 in0.0 mm 0.00 in0.0 mm 0.04 in1.0 mm
09:55 PM 50.2°F10.1°C 43.6°F6.4°C 78% 3.1 mph SE5.0 kmh SE 4.0 mph6.4 kmh 29.63 in1003.4 mb 0.00 in0.0 mm 0.00 in0.0 mm 0.04 in1.0 mm
10:00 PM 50.2°F10.1°C 43.9°F6.6°C 79% 3.6 mph SE5.8 kmh SE 8.7 mph14.0 kmh 29.63 in1003.4 mb 0.00 in0.0 mm 0.00 in0.0 mm 0.04 in1.0 mm
10:05 PM 50.2°F10.1°C 43.9°F6.6°C 79% 2.2 mph SE3.5 kmh SE 8.9 mph14.3 kmh 29.62 in1003.0 mb 0.00 in0.0 mm 0.00 in0.0 mm 0.04 in1.0 mm
10:10 PM 50.2°F10.1°C 43.9°F6.6°C 79% 1.1 mph SE1.8 kmh SE 8.9 mph14.3 kmh 29.62 in1003.0 mb 0.00 in0.0 mm 0.00 in0.0 mm 0.04 in1.0 mm
10:15 PM 50.2°F10.1°C 43.9°F6.6°C 79% 6.3 mph SE10.1 kmh SE 6.9 mph11.1 kmh 29.63 in1003.4 mb 0.00 in0.0 mm 0.00 in0.0 mm 0.04 in1.0 mm
10:20 PM 50.2°F10.1°C 43.9°F6.6°C 79% 2.7 mph SE4.3 kmh SE 7.8 mph12.6 kmh 29.63 in1003.4 mb 0.00 in0.0 mm 0.00 in0.0 mm 0.04 in1.0 mm
10:25 PM 50.2°F10.1°C 43.9°F6.6°C 79% Calm Calm 7.8 mph12.6 kmh 29.63 in1003.4 mb 0.00 in0.0 mm 0.00 in0.0 mm 0.04 in1.0 mm
10:30 PM 50.2°F10.1°C 43.9°F6.6°C 79% 2.0 mph ESE3.2 kmh ESE 7.4 mph11.9 kmh 29.63 in1003.4 mb 0.00 in0.0 mm 0.00 in0.0 mm 0.04 in1.0 mm
10:35 PM 50.2°F10.1°C 43.9°F6.6°C 79% Calm Calm 7.4 mph11.9 kmh 29.63 in1003.4 mb 0.00 in0.0 mm 0.00 in0.0 mm 0.04 in1.0 mm
10:40 PM 50.2°F10.1°C 43.9°F6.6°C 79% 3.6 mph S5.8 kmh S 7.6 mph12.2 kmh 29.63 in1003.4 mb 0.00 in0.0 mm 0.00 in0.0 mm 0.04 in1.0 mm
10:45 PM 50.2°F10.1°C 43.9°F6.6°C 79% Calm Calm 7.6 mph12.2 kmh 29.63 in1003.4 mb 0.00 in0.0 mm 0.00 in0.0 mm 0.04 in1.0 mm
10:50 PM 50.2°F10.1°C 43.9°F6.6°C 79% 2.7 mph S4.3 kmh S 6.3 mph10.1 kmh 29.63 in1003.4 mb 0.00 in0.0 mm 0.00 in0.0 mm 0.04 in1.0 mm
10:55 PM 50.2°F10.1°C 43.9°F6.6°C 79% 4.7 mph S7.6 kmh S 8.1 mph13.0 kmh 29.63 in1003.4 mb 0.00 in0.0 mm 0.00 in0.0 mm 0.04 in1.0 mm
11:00 PM 50.0°F10.0°C 43.7°F6.5°C 79% 7.6 mph SSW12.2 kmh SSW 13.4 mph21.6 kmh 29.63 in1003.4 mb 0.00 in0.0 mm 0.00 in0.0 mm 0.04 in1.0 mm
11:05 PM 50.2°F10.1°C 43.9°F6.6°C 79% 7.8 mph SSW12.6 kmh SSW 13.4 mph21.6 kmh 29.63 in1003.4 mb 0.00 in0.0 mm 0.00 in0.0 mm 0.04 in1.0 mm
11:10 PM 50.2°F10.1°C 43.6°F6.4°C 78% 2.5 mph SSW4.0 kmh SSW 12.8 mph20.6 kmh 29.62 in1003.0 mb 0.00 in0.0 mm 0.00 in0.0 mm 0.04 in1.0 mm
11:15 PM 50.2°F10.1°C 43.6°F6.4°C 78% 6.9 mph S11.1 kmh S 10.3 mph16.6 kmh 29.62 in1003.0 mb 0.00 in0.0 mm 0.00 in0.0 mm 0.04 in1.0 mm
11:20 PM 50.0°F10.0°C 43.4°F6.3°C 78% 3.8 mph S6.1 kmh S 8.7 mph14.0 kmh 29.63 in1003.4 mb 0.00 in0.0 mm 0.00 in0.0 mm 0.04 in1.0 mm
11:25 PM 50.2°F10.1°C 43.6°F6.4°C 78% 4.0 mph SSW6.4 kmh SSW 8.5 mph13.7 kmh 29.63 in1003.4 mb 0.00 in0.0 mm 0.00 in0.0 mm 0.04 in1.0 mm
11:30 PM 50.2°F10.1°C 43.2°F6.2°C 77% 6.9 mph S11.1 kmh S 12.3 mph19.8 kmh 29.62 in1003.0 mb 0.00 in0.0 mm 0.00 in0.0 mm 0.04 in1.0 mm
11:35 PM 50.4°F10.2°C 43.1°F6.2°C 76% 12.5 mph S20.1 kmh S 16.3 mph26.2 kmh 29.62 in1003.0 mb 0.00 in0.0 mm 0.00 in0.0 mm 0.04 in1.0 mm
11:40 PM 50.5°F10.3°C 43.2°F6.2°C 76% 9.2 mph S14.8 kmh S 17.0 mph27.4 kmh 29.62 in1003.0 mb 0.00 in0.0 mm 0.00 in0.0 mm 0.04 in1.0 mm
11:45 PM 50.7°F10.4°C 43.4°F6.3°C 76% 12.3 mph S19.8 kmh S 17.9 mph28.8 kmh 29.62 in1003.0 mb 0.00 in0.0 mm 0.00 in0.0 mm 0.04 in1.0 mm
11:50 PM 50.7°F10.4°C 43.1°F6.2°C 75% 15.7 mph SSW25.3 kmh SSW 19.7 mph31.7 kmh 29.62 in1003.0 mb 0.00 in0.0 mm 0.00 in0.0 mm 0.04 in1.0 mm
11:55 PM 50.7°F10.4°C 43.1°F6.2°C 75% 17.4 mph SSW28.0 kmh SSW 19.7 mph31.7 kmh 29.62 in1003.0 mb 0.00 in0.0 mm 0.00 in0.0 mm 0.04 in1.0 mm